sensor_id;sensor_type;location;lat;lon;timestamp;pressure;altitude;pressure_sealevel;temperature;humidity
72585;BME280;60618;40.084;32.908;2022-08-24T00:01:47;89150.44;;;25.17;27.13
72585;BME280;60618;40.084;32.908;2022-08-24T00:04:14;89152.28;;;25.15;27.25
72585;BME280;60618;40.084;32.908;2022-08-24T00:06:43;89148.00;;;25.12;27.09
72585;BME280;60618;40.084;32.908;2022-08-24T00:09:10;89152.28;;;25.15;27.68
72585;BME280;60618;40.084;32.908;2022-08-24T00:11:37;89155.44;;;25.11;27.60
72585;BME280;60618;40.084;32.908;2022-08-24T00:14:04;89149.72;;;25.07;27.60
72585;BME280;60618;40.084;32.908;2022-08-24T00:16:31;89145.38;;;25.04;27.86
72585;BME280;60618;40.084;32.908;2022-08-24T00:18:58;89149.97;;;25.02;27.87
72585;BME280;60618;40.084;32.908;2022-08-24T00:21:25;89150.38;;;24.98;28.10
72585;BME280;60618;40.084;32.908;2022-08-24T00:23:52;89150.06;;;24.94;28.36
72585;BME280;60618;40.084;32.908;2022-08-24T00:26:20;89147.94;;;24.92;28.30
72585;BME280;60618;40.084;32.908;2022-08-24T00:28:57;89149.06;;;24.89;28.37
72585;BME280;60618;40.084;32.908;2022-08-24T00:31:26;89144.03;;;24.86;28.23
72585;BME280;60618;40.084;32.908;2022-08-24T00:33:53;89152.22;;;24.86;28.16
72585;BME280;60618;40.084;32.908;2022-08-24T00:36:21;89146.03;;;24.85;28.53
72585;BME280;60618;40.084;32.908;2022-08-24T00:38:48;89139.75;;;24.83;28.48
72585;BME280;60618;40.084;32.908;2022-08-24T00:41:16;89144.03;;;24.86;28.56
72585;BME280;60618;40.084;32.908;2022-08-24T00:43:54;89145.47;;;24.87;28.50
72585;BME280;60618;40.084;32.908;2022-08-24T00:46:29;89145.91;;;24.83;28.53
72585;BME280;60618;40.084;32.908;2022-08-24T00:49:07;89149.19;;;24.82;28.37
72585;BME280;60618;40.084;32.908;2022-08-24T00:51:39;89152.50;;;24.80;28.57
72585;BME280;60618;40.084;32.908;2022-08-24T00:54:11;89144.88;;;24.79;28.86
72585;BME280;60618;40.084;32.908;2022-08-24T00:56:45;89137.09;;;24.66;28.61
72585;BME280;60618;40.084;32.908;2022-08-24T00:59:24;89148.28;;;24.70;28.68
72585;BME280;60618;40.084;32.908;2022-08-24T01:01:53;89142.56;;;24.66;28.89
72585;BME280;60618;40.084;32.908;2022-08-24T01:04:37;89143.28;;;24.66;28.64
72585;BME280;60618;40.084;32.908;2022-08-24T01:07:06;89133.06;;;24.57;28.60
72585;BME280;60618;40.084;32.908;2022-08-24T01:09:33;89138.09;;;24.60;28.63
72585;BME280;60618;40.084;32.908;2022-08-24T01:12:00;89133.94;;;24.59;28.74
72585;BME280;60618;40.084;32.908;2022-08-24T01:14:27;89129.19;;;24.60;28.96
72585;BME280;60618;40.084;32.908;2022-08-24T01:16:54;89132.63;;;24.60;28.60
72585;BME280;60618;40.084;32.908;2022-08-24T01:19:45;89129.63;;;24.56;29.02
72585;BME280;60618;40.084;32.908;2022-08-24T01:25:13;89118.84;;;24.49;29.21
72585;BME280;60618;40.084;32.908;2022-08-24T01:27:41;89123.25;;;24.44;28.67
72585;BME280;60618;40.084;32.908;2022-08-24T01:30:12;89111.66;;;24.44;29.06
72585;BME280;60618;40.084;32.908;2022-08-24T01:32:40;89112.09;;;24.40;29.05
72585;BME280;60618;40.084;32.908;2022-08-24T01:35:08;89119.97;;;24.36;28.89
72585;BME280;60618;40.084;32.908;2022-08-24T01:37:35;89119.38;;;24.38;28.93
72585;BME280;60618;40.084;32.908;2022-08-24T01:40:06;89118.03;;;24.29;29.28
72585;BME280;60618;40.084;32.908;2022-08-24T01:42:33;89112.28;;;24.25;29.06
72585;BME280;60618;40.084;32.908;2022-08-24T01:45:04;89113.84;;;24.18;29.31
72585;BME280;60618;40.084;32.908;2022-08-24T01:47:31;89115.69;;;24.16;29.16
72585;BME280;60618;40.084;32.908;2022-08-24T01:49:58;89114.09;;;24.13;29.57
72585;BME280;60618;40.084;32.908;2022-08-24T01:52:27;89117.97;;;24.10;29.55
72585;BME280;60618;40.084;32.908;2022-08-24T01:55:14;89112.19;;;24.05;29.21
72585;BME280;60618;40.084;32.908;2022-08-24T01:57:47;89122.78;;;24.01;29.57
72585;BME280;60618;40.084;32.908;2022-08-24T02:00:15;89115.19;;;24.00;29.67
72585;BME280;60618;40.084;32.908;2022-08-24T02:02:43;89113.91;;;24.01;29.57
72585;BME280;60618;40.084;32.908;2022-08-24T02:05:13;89111.56;;;23.97;29.33
72585;BME280;60618;40.084;32.908;2022-08-24T02:07:41;89116.31;;;23.97;29.17
72585;BME280;60618;40.084;32.908;2022-08-24T02:10:13;89109.84;;;23.92;29.09
72585;BME280;60618;40.084;32.908;2022-08-24T02:12:42;89115.28;;;23.92;28.94
72585;BME280;60618;40.084;32.908;2022-08-24T02:15:10;89118.16;;;23.94;28.94
72585;BME280;60618;40.084;32.908;2022-08-24T02:17:37;89117.13;;;23.90;29.07
72585;BME280;60618;40.084;32.908;2022-08-24T02:20:05;89113.69;;;23.89;28.98
72585;BME280;60618;40.084;32.908;2022-08-24T02:22:32;89108.25;;;23.89;29.19
72585;BME280;60618;40.084;32.908;2022-08-24T02:24:59;89115.59;;;23.96;29.15
72585;BME280;60618;40.084;32.908;2022-08-24T02:27:26;89112.00;;;23.94;29.03
72585;BME280;60618;40.084;32.908;2022-08-24T02:29:53;89112.72;;;23.94;28.86
72585;BME280;60618;40.084;32.908;2022-08-24T02:32:20;89111.13;;;23.91;28.95
72585;BME280;60618;40.084;32.908;2022-08-24T02:34:47;89111.69;;;23.90;29.05
72585;BME280;60618;40.084;32.908;2022-08-24T02:37:14;89108.91;;;23.80;29.28
72585;BME280;60618;40.084;32.908;2022-08-24T02:39:41;89112.03;;;23.76;29.33
72585;BME280;60618;40.084;32.908;2022-08-24T02:42:08;89116.91;;;23.78;29.28
72585;BME280;60618;40.084;32.908;2022-08-24T02:44:35;89115.06;;;23.81;29.21
72585;BME280;60618;40.084;32.908;2022-08-24T02:47:02;89117.06;;;23.80;29.28
72585;BME280;60618;40.084;32.908;2022-08-24T02:49:29;89115.78;;;23.81;28.96
72585;BME280;60618;40.084;32.908;2022-08-24T02:51:56;89114.34;;;23.80;29.28
72585;BME280;60618;40.084;32.908;2022-08-24T02:54:23;89110.50;;;23.83;28.76
72585;BME280;60618;40.084;32.908;2022-08-24T02:56:50;89108.91;;;23.80;29.20
72585;BME280;60618;40.084;32.908;2022-08-24T02:59:17;89106.91;;;23.81;29.15
72585;BME280;60618;40.084;32.908;2022-08-24T03:01:45;89110.03;;;23.77;29.13
72585;BME280;60618;40.084;32.908;2022-08-24T03:04:15;89112.47;;;23.73;29.10
72585;BME280;60618;40.084;32.908;2022-08-24T03:06:42;89114.47;;;23.72;29.30
72585;BME280;60618;40.084;32.908;2022-08-24T03:09:09;89112.13;;;23.69;28.95
72585;BME280;60618;40.084;32.908;2022-08-24T03:11:36;89109.56;;;23.71;29.25
72585;BME280;60618;40.084;32.908;2022-08-24T03:14:03;89113.72;;;23.72;29.16
72585;BME280;60618;40.084;32.908;2022-08-24T03:16:30;89112.59;;;23.75;29.01
72585;BME280;60618;40.084;32.908;2022-08-24T03:18:57;89119.78;;;23.80;28.80
72585;BME280;60618;40.084;32.908;2022-08-24T03:21:25;89124.94;;;23.76;28.75
72585;BME280;60618;40.084;32.908;2022-08-24T03:23:52;89119.78;;;23.80;28.44
72585;BME280;60618;40.084;32.908;2022-08-24T03:26:19;89112.91;;;23.79;28.76
72585;BME280;60618;40.084;32.908;2022-08-24T03:28:46;89114.66;;;23.84;28.75
72585;BME280;60618;40.084;32.908;2022-08-24T03:31:15;89114.25;;;23.88;28.39
72585;BME280;60618;40.084;32.908;2022-08-24T03:33:42;89122.31;;;23.95;28.64
72585;BME280;60618;40.084;32.908;2022-08-24T03:36:09;89115.91;;;24.00;28.21
72585;BME280;60618;40.084;32.908;2022-08-24T03:38:40;89115.94;;;24.10;28.22
72585;BME280;60618;40.084;32.908;2022-08-24T03:41:08;89114.84;;;24.23;28.24
72585;BME280;60618;40.084;32.908;2022-08-24T03:43:37;89114.75;;;24.30;27.74
72585;BME280;60618;40.084;32.908;2022-08-24T03:46:06;89111.78;;;24.36;27.38
72585;BME280;60618;40.084;32.908;2022-08-24T03:48:34;89112.53;;;24.46;27.30
72585;BME280;60618;40.084;32.908;2022-08-24T03:51:01;89111.13;;;24.55;27.44
72585;BME280;60618;40.084;32.908;2022-08-24T03:53:28;89103.41;;;24.61;27.20
72585;BME280;60618;40.084;32.908;2022-08-24T03:55:55;89103.59;;;24.73;27.07
72585;BME280;60618;40.084;32.908;2022-08-24T03:58:22;89107.03;;;24.83;27.11
72585;BME280;60618;40.084;32.908;2022-08-24T04:00:49;89107.78;;;24.93;26.97
72585;BME280;60618;40.084;32.908;2022-08-24T04:03:16;89113.53;;;25.07;26.89
72585;BME280;60618;40.084;32.908;2022-08-24T04:05:43;89117.16;;;25.19;26.17
72585;BME280;60618;40.084;32.908;2022-08-24T04:08:10;89110.56;;;25.32;26.30
72585;BME280;60618;40.084;32.908;2022-08-24T04:10:44;89106.53;;;25.42;26.08
72585;BME280;60618;40.084;32.908;2022-08-24T04:13:11;89108.97;;;25.58;25.63
72585;BME280;60618;40.084;32.908;2022-08-24T04:15:39;89105.13;;;25.70;25.39
72585;BME280;60618;40.084;32.908;2022-08-24T04:18:10;89101.94;;;25.84;25.56
72585;BME280;60618;40.084;32.908;2022-08-24T04:20:41;89100.19;;;25.98;24.74
72585;BME280;60618;40.084;32.908;2022-08-24T04:23:10;89112.34;;;26.16;24.76
72585;BME280;60618;40.084;32.908;2022-08-24T04:25:46;89109.84;;;26.30;24.53
72585;BME280;60618;40.084;32.908;2022-08-24T04:28:18;89113.72;;;26.46;24.36
72585;BME280;60618;40.084;32.908;2022-08-24T04:30:47;89115.94;;;26.59;23.83
72585;BME280;60618;40.084;32.908;2022-08-24T04:33:15;89116.75;;;26.72;23.86
72585;BME280;60618;40.084;32.908;2022-08-24T04:35:44;89122.44;;;26.85;23.59
72585;BME280;60618;40.084;32.908;2022-08-24T04:38:12;89111.00;;;26.99;23.96
72585;BME280;60618;40.084;32.908;2022-08-24T04:40:43;89118.13;;;27.13;24.00
72585;BME280;60618;40.084;32.908;2022-08-24T04:43:12;89117.16;;;27.30;23.23
72585;BME280;60618;40.084;32.908;2022-08-24T04:45:46;89111.41;;;27.48;23.22
72585;BME280;60618;40.084;32.908;2022-08-24T04:48:14;89117.19;;;27.63;23.24
72585;BME280;60618;40.084;32.908;2022-08-24T04:50:42;89117.25;;;27.75;22.55
72585;BME280;60618;40.084;32.908;2022-08-24T04:53:11;89117.44;;;27.89;22.67
72585;BME280;60618;40.084;32.908;2022-08-24T04:55:44;89117.72;;;28.05;22.56
72585;BME280;60618;40.084;32.908;2022-08-24T04:58:13;89109.19;;;28.22;21.88
72585;BME280;60618;40.084;32.908;2022-08-24T05:00:41;89124.47;;;28.37;21.76
72585;BME280;60618;40.084;32.908;2022-08-24T05:03:08;89114.97;;;28.49;21.88
72585;BME280;60618;40.084;32.908;2022-08-24T05:05:40;89116.28;;;28.60;21.57
72585;BME280;60618;40.084;32.908;2022-08-24T05:08:08;89124.50;;;28.72;21.05
72585;BME280;60618;40.084;32.908;2022-08-24T05:10:41;89117.97;;;28.89;21.47
72585;BME280;60618;40.084;32.908;2022-08-24T05:13:09;89124.88;;;29.01;21.35
72585;BME280;60618;40.084;32.908;2022-08-24T05:15:41;89122.97;;;29.16;21.31
72585;BME280;60618;40.084;32.908;2022-08-24T05:18:08;89121.16;;;29.32;20.61
72585;BME280;60618;40.084;32.908;2022-08-24T05:20:39;89127.22;;;29.42;20.51
72585;BME280;60618;40.084;32.908;2022-08-24T05:23:07;89129.25;;;29.53;19.93
72585;BME280;60618;40.084;32.908;2022-08-24T05:25:34;89129.81;;;29.63;19.74
72585;BME280;60618;40.084;32.908;2022-08-24T05:28:01;89131.31;;;29.78;19.83
72585;BME280;60618;40.084;32.908;2022-08-24T05:30:28;89126.00;;;29.94;19.11
72585;BME280;60618;40.084;32.908;2022-08-24T05:32:55;89131.44;;;30.06;18.93
72585;BME280;60618;40.084;32.908;2022-08-24T05:35:22;89135.28;;;30.12;19.70
72585;BME280;60618;40.084;32.908;2022-08-24T05:37:49;89133.06;;;30.22;19.01
72585;BME280;60618;40.084;32.908;2022-08-24T05:40:17;89133.00;;;30.34;18.67
72585;BME280;60618;40.084;32.908;2022-08-24T05:42:45;89139.44;;;30.39;18.66
72585;BME280;60618;40.084;32.908;2022-08-24T05:45:12;89133.16;;;30.50;17.87
72585;BME280;60618;40.084;32.908;2022-08-24T05:47:39;89134.19;;;30.57;18.44
72585;BME280;60618;40.084;32.908;2022-08-24T05:50:07;89137.50;;;30.67;18.57
72585;BME280;60618;40.084;32.908;2022-08-24T05:52:34;89120.19;;;30.78;18.25
72585;BME280;60618;40.084;32.908;2022-08-24T05:55:01;89133.84;;;30.90;18.29
72585;BME280;60618;40.084;32.908;2022-08-24T05:57:33;89124.50;;;30.95;18.20
72585;BME280;60618;40.084;32.908;2022-08-24T06:00:01;89134.91;;;31.10;17.75
72585;BME280;60618;40.084;32.908;2022-08-24T06:02:28;89117.59;;;31.21;17.63
72585;BME280;60618;40.084;32.908;2022-08-24T06:04:55;89121.56;;;31.32;17.65
72585;BME280;60618;40.084;32.908;2022-08-24T06:07:22;89127.38;;;31.38;17.55
72585;BME280;60618;40.084;32.908;2022-08-24T06:09:49;89130.41;;;31.44;17.61
72585;BME280;60618;40.084;32.908;2022-08-24T06:12:16;89130.94;;;31.54;17.72
72585;BME280;60618;40.084;32.908;2022-08-24T06:14:46;89125.47;;;31.70;17.21
72585;BME280;60618;40.084;32.908;2022-08-24T06:17:13;89131.63;;;31.82;17.29
72585;BME280;60618;40.084;32.908;2022-08-24T06:19:40;89131.09;;;31.86;17.17
72585;BME280;60618;40.084;32.908;2022-08-24T06:22:07;89131.16;;;32.02;16.93
72585;BME280;60618;40.084;32.908;2022-08-24T06:24:36;89130.13;;;32.09;16.95
72585;BME280;60618;40.084;32.908;2022-08-24T06:27:03;89134.69;;;32.18;16.55
72585;BME280;60618;40.084;32.908;2022-08-24T06:29:32;89129.75;;;32.30;16.27
72585;BME280;60618;40.084;32.908;2022-08-24T06:32:00;89125.31;;;32.39;16.66
72585;BME280;60618;40.084;32.908;2022-08-24T06:34:27;89122.66;;;32.41;16.34
72585;BME280;60618;40.084;32.908;2022-08-24T06:36:53;89128.13;;;32.55;16.24
72585;BME280;60618;40.084;32.908;2022-08-24T06:39:21;89128.66;;;32.67;16.34
72585;BME280;60618;40.084;32.908;2022-08-24T06:41:48;89123.59;;;32.77;15.62
72585;BME280;60618;40.084;32.908;2022-08-24T06:44:15;89128.06;;;32.84;15.81
72585;BME280;60618;40.084;32.908;2022-08-24T06:46:41;89123.53;;;32.91;15.39
72585;BME280;60618;40.084;32.908;2022-08-24T06:49:08;89124.41;;;32.95;15.03
72585;BME280;60618;40.084;32.908;2022-08-24T06:51:35;89127.38;;;32.99;15.51
72585;BME280;60618;40.084;32.908;2022-08-24T06:54:02;89128.31;;;33.06;15.95
72585;BME280;60618;40.084;32.908;2022-08-24T06:56:29;89127.34;;;33.15;15.21
72585;BME280;60618;40.084;32.908;2022-08-24T06:58:56;89123.59;;;33.24;15.39
72585;BME280;60618;40.084;32.908;2022-08-24T07:01:24;89117.91;;;33.36;15.26
72585;BME280;60618;40.084;32.908;2022-08-24T07:03:52;89116.91;;;33.45;15.32
72585;BME280;60618;40.084;32.908;2022-08-24T07:06:19;89123.56;;;33.56;14.85
72585;BME280;60618;40.084;32.908;2022-08-24T07:08:46;89114.28;;;33.65;15.61
72585;BME280;60618;40.084;32.908;2022-08-24T07:11:15;89124.78;;;33.69;14.92
72585;BME280;60618;40.084;32.908;2022-08-24T07:13:43;89118.22;;;33.78;14.76
72585;BME280;60618;40.084;32.908;2022-08-24T07:16:10;89113.41;;;33.78;14.57
72585;BME280;60618;40.084;32.908;2022-08-24T07:18:38;89113.97;;;33.75;14.31
72585;BME280;60618;40.084;32.908;2022-08-24T07:21:07;89110.06;;;33.80;13.55
72585;BME280;60618;40.084;32.908;2022-08-24T07:23:34;89109.88;;;33.76;13.56
72585;BME280;60618;40.084;32.908;2022-08-24T07:26:14;89111.06;;;33.71;13.53
72585;BME280;60618;40.084;32.908;2022-08-24T07:28:56;89113.84;;;33.55;12.94
72585;BME280;60618;40.084;32.908;2022-08-24T07:31:23;89107.28;;;33.46;14.01
72585;BME280;60618;40.084;32.908;2022-08-24T07:33:50;89104.44;;;33.44;13.39
72585;BME280;60618;40.084;32.908;2022-08-24T07:36:17;89103.03;;;33.43;13.67
72585;BME280;60618;40.084;32.908;2022-08-24T07:38:49;89098.94;;;33.44;13.40
72585;BME280;60618;40.084;32.908;2022-08-24T07:41:17;89104.44;;;33.44;13.40
72585;BME280;60618;40.084;32.908;2022-08-24T07:44:03;89110.47;;;33.56;13.80
72585;BME280;60618;40.084;32.908;2022-08-24T07:46:30;89103.53;;;33.55;13.81
72585;BME280;60618;40.084;32.908;2022-08-24T07:48:58;89094.97;;;33.49;13.05
72585;BME280;60618;40.084;32.908;2022-08-24T07:51:44;89099.88;;;33.51;13.50
72585;BME280;60618;40.084;32.908;2022-08-24T07:54:13;89097.28;;;33.55;14.20
72585;BME280;60618;40.084;32.908;2022-08-24T07:56:41;89101.75;;;33.46;13.30
72585;BME280;60618;40.084;32.908;2022-08-24T07:59:08;89089.63;;;33.53;13.42
72585;BME280;60618;40.084;32.908;2022-08-24T08:01:39;89084.44;;;33.62;14.38
72585;BME280;60618;40.084;32.908;2022-08-24T08:04:07;89083.50;;;33.73;13.22
72585;BME280;60618;40.084;32.908;2022-08-24T08:06:35;89083.25;;;33.67;14.05
72585;BME280;60618;40.084;32.908;2022-08-24T08:09:04;89092.81;;;33.64;13.62
72585;BME280;60618;40.084;32.908;2022-08-24T08:11:31;89085.88;;;33.63;14.10
72585;BME280;60618;40.084;32.908;2022-08-24T08:13:59;89088.16;;;33.68;13.69
72585;BME280;60618;40.084;32.908;2022-08-24T08:16:26;89084.53;;;33.64;14.08
72585;BME280;60618;40.084;32.908;2022-08-24T08:18:53;89086.25;;;33.55;14.39
72585;BME280;60618;40.084;32.908;2022-08-24T08:21:46;89082.16;;;33.40;14.53
72585;BME280;60618;40.084;32.908;2022-08-24T08:24:13;89078.19;;;33.43;14.92
72585;BME280;60618;40.084;32.908;2022-08-24T08:26:45;89081.72;;;33.46;15.19
72585;BME280;60618;40.084;32.908;2022-08-24T08:29:12;89067.44;;;33.51;14.75
72585;BME280;60618;40.084;32.908;2022-08-24T08:31:40;89077.16;;;33.52;14.37
72585;BME280;60618;40.084;32.908;2022-08-24T08:34:08;89065.72;;;33.60;14.60
72585;BME280;60618;40.084;32.908;2022-08-24T08:36:36;89060.31;;;33.80;15.08
72585;BME280;60618;40.084;32.908;2022-08-24T08:39:04;89067.47;;;33.87;14.87
72585;BME280;60618;40.084;32.908;2022-08-24T08:44:43;89062.50;;;33.83;14.62
72585;BME280;60618;40.084;32.908;2022-08-24T08:52:30;89050.81;;;33.85;14.50
72585;BME280;60618;40.084;32.908;2022-08-24T08:58:04;89040.47;;;33.85;14.40
72585;BME280;60618;40.084;32.908;2022-08-24T09:06:32;89047.94;;;33.99;15.18
72585;BME280;60618;40.084;32.908;2022-08-24T09:17:07;89038.81;;;34.32;13.90
72585;BME280;60618;40.084;32.908;2022-08-24T09:22:24;89033.16;;;34.28;13.87
72585;BME280;60618;40.084;32.908;2022-08-24T09:30:24;89021.13;;;34.39;14.54
72585;BME280;60618;40.084;32.908;2022-08-24T09:38:28;89010.09;;;34.59;14.42
72585;BME280;60618;40.084;32.908;2022-08-24T09:41:18;89005.50;;;34.65;13.98
72585;BME280;60618;40.084;32.908;2022-08-24T10:00:27;89005.38;;;34.61;14.66
72585;BME280;60618;40.084;32.908;2022-08-24T10:11:39;88996.41;;;34.43;14.53
72585;BME280;60618;40.084;32.908;2022-08-24T10:17:03;88992.50;;;34.50;14.83
72585;BME280;60618;40.084;32.908;2022-08-24T10:25:39;88999.53;;;34.53;14.62
72585;BME280;60618;40.084;32.908;2022-08-24T10:37:30;88987.69;;;34.51;14.54
72585;BME280;60618;40.084;32.908;2022-08-24T10:40:27;88984.84;;;34.49;14.03
72585;BME280;60618;40.084;32.908;2022-08-24T10:46:07;88968.81;;;34.85;14.32
72585;BME280;60618;40.084;32.908;2022-08-24T10:52:16;88966.25;;;35.11;14.33
72585;BME280;60618;40.084;32.908;2022-08-24T10:54:17;88978.78;;;35.34;14.38
72585;BME280;60618;40.084;32.908;2022-08-24T10:59:23;88971.88;;;35.54;13.79
72585;BME280;60618;40.084;32.908;2022-08-24T11:04:29;88942.56;;;35.69;14.08
72585;BME280;60618;40.084;32.908;2022-08-24T11:07:07;88957.88;;;35.72;12.97
72585;BME280;60618;40.084;32.908;2022-08-24T11:09:53;88964.19;;;35.53;13.01
72585;BME280;60618;40.084;32.908;2022-08-24T11:14:54;88950.31;;;35.31;13.50
72585;BME280;60618;40.084;32.908;2022-08-24T11:17:24;88962.69;;;35.28;13.68
72585;BME280;60618;40.084;32.908;2022-08-24T11:19:51;88942.91;;;35.38;13.85
72585;BME280;60618;40.084;32.908;2022-08-24T11:22:39;88951.91;;;35.38;13.48
72585;BME280;60618;40.084;32.908;2022-08-24T11:25:25;88940.63;;;35.52;13.57
72585;BME280;60618;40.084;32.908;2022-08-24T11:28:16;88941.19;;;35.48;13.18
72585;BME280;60618;40.084;32.908;2022-08-24T11:30:45;88937.72;;;35.48;13.21
72585;BME280;60618;40.084;32.908;2022-08-24T11:35:54;88931.31;;;35.65;13.31
72585;BME280;60618;40.084;32.908;2022-08-24T11:38:23;88930.50;;;35.61;12.99
72585;BME280;60618;40.084;32.908;2022-08-24T11:40:58;88926.06;;;35.51;12.67
72585;BME280;60618;40.084;32.908;2022-08-24T11:46:38;88922.06;;;35.57;13.52
72585;BME280;60618;40.084;32.908;2022-08-24T11:49:18;88919.28;;;35.78;13.43
72585;BME280;60618;40.084;32.908;2022-08-24T11:59:54;88910.06;;;36.42;12.84
72585;BME280;60618;40.084;32.908;2022-08-24T12:13:03;88886.38;;;36.38;12.71
72585;BME280;60618;40.084;32.908;2022-08-24T12:15:49;88890.47;;;36.35;12.84
72585;BME280;60618;40.084;32.908;2022-08-24T12:18:52;88894.22;;;36.46;13.29
72585;BME280;60618;40.084;32.908;2022-08-24T12:21:25;88889.28;;;36.43;12.84
72585;BME280;60618;40.084;32.908;2022-08-24T12:24:02;88884.91;;;36.35;13.12
72585;BME280;60618;40.084;32.908;2022-08-24T12:26:37;88886.63;;;36.23;12.93
72585;BME280;60618;40.084;32.908;2022-08-24T12:31:46;88873.09;;;35.87;13.63
72585;BME280;60618;40.084;32.908;2022-08-24T12:45:12;88883.56;;;35.43;14.41
72585;BME280;60618;40.084;32.908;2022-08-24T12:47:53;88893.47;;;35.50;14.17
72585;BME280;60618;40.084;32.908;2022-08-24T12:56:06;88871.13;;;35.44;14.77
72585;BME280;60618;40.084;32.908;2022-08-24T13:01:46;88869.38;;;35.33;15.08
72585;BME280;60618;40.084;32.908;2022-08-24T13:06:59;88868.97;;;35.20;14.99
72585;BME280;60618;40.084;32.908;2022-08-24T13:09:40;88855.00;;;35.16;14.96
72585;BME280;60618;40.084;32.908;2022-08-24T13:20:27;88850.69;;;34.89;15.50
72585;BME280;60618;40.084;32.908;2022-08-24T13:23:13;88835.31;;;34.86;15.17
72585;BME280;60618;40.084;32.908;2022-08-24T13:33:34;88843.75;;;34.68;15.38
72585;BME280;60618;40.084;32.908;2022-08-24T13:36:06;88843.41;;;34.58;15.81
72585;BME280;60618;40.084;32.908;2022-08-24T13:46:43;88828.09;;;34.55;15.45
72585;BME280;60618;40.084;32.908;2022-08-24T13:51:47;88825.34;;;34.77;15.73
72585;BME280;60618;40.084;32.908;2022-08-24T14:11:18;88806.19;;;34.83;15.50
72585;BME280;60618;40.084;32.908;2022-08-24T14:14:21;88819.31;;;34.83;15.29
72585;BME280;60618;40.084;32.908;2022-08-24T14:20:03;88806.88;;;34.62;15.49
72585;BME280;60618;40.084;32.908;2022-08-24T14:22:39;88805.50;;;34.41;15.17
72585;BME280;60618;40.084;32.908;2022-08-24T14:25:22;88802.94;;;34.27;16.02
72585;BME280;60618;40.084;32.908;2022-08-24T14:40:41;88792.16;;;33.76;16.65
72585;BME280;60618;40.084;32.908;2022-08-24T14:54:29;88770.44;;;33.11;16.75
72585;BME280;60618;40.084;32.908;2022-08-24T14:57:09;88777.75;;;33.04;17.35
72585;BME280;60618;40.084;32.908;2022-08-24T14:59:49;88775.41;;;32.96;17.03
72585;BME280;60618;40.084;32.908;2022-08-24T15:05:17;88762.41;;;32.81;17.34
72585;BME280;60618;40.084;32.908;2022-08-24T15:07:58;88756.72;;;32.77;17.32
72585;BME280;60618;40.084;32.908;2022-08-24T15:10:54;88759.16;;;32.69;17.50
72585;BME280;60618;40.084;32.908;2022-08-24T15:16:23;88763.94;;;32.51;17.72
72585;BME280;60618;40.084;32.908;2022-08-24T15:24:36;88758.75;;;32.25;17.84
72585;BME280;60618;40.084;32.908;2022-08-24T15:32:17;88762.28;;;32.10;18.20
72585;BME280;60618;40.084;32.908;2022-08-24T15:34:47;88762.13;;;32.06;18.67
72585;BME280;60618;40.084;32.908;2022-08-24T15:37:34;88764.72;;;32.02;18.43
72585;BME280;60618;40.084;32.908;2022-08-24T15:40:04;88766.41;;;31.93;18.59
72585;BME280;60618;40.084;32.908;2022-08-24T15:42:34;88757.91;;;31.87;18.65
72585;BME280;60618;40.084;32.908;2022-08-24T15:45:03;88766.63;;;31.81;18.57
72585;BME280;60618;40.084;32.908;2022-08-24T15:47:33;88770.63;;;31.78;18.66
72585;BME280;60618;40.084;32.908;2022-08-24T15:52:55;88764.81;;;31.72;18.45
72585;BME280;60618;40.084;32.908;2022-08-24T15:55:28;88771.56;;;31.69;18.74
72585;BME280;60618;40.084;32.908;2022-08-24T15:58:10;88766.63;;;31.66;18.87
72585;BME280;60618;40.084;32.908;2022-08-24T16:00:38;88771.31;;;31.63;19.02
72585;BME280;60618;40.084;32.908;2022-08-24T16:06:33;88774.97;;;31.52;18.77
72585;BME280;60618;40.084;32.908;2022-08-24T16:09:06;88768.75;;;31.51;18.66
72585;BME280;60618;40.084;32.908;2022-08-24T16:11:57;88766.63;;;31.50;18.84
72585;BME280;60618;40.084;32.908;2022-08-24T16:14:43;88759.69;;;31.49;18.80
72585;BME280;60618;40.084;32.908;2022-08-24T16:20:45;88762.38;;;31.47;19.15
72585;BME280;60618;40.084;32.908;2022-08-24T16:22:59;88766.34;;;31.44;19.04
72585;BME280;60618;40.084;32.908;2022-08-24T16:25:28;88762.81;;;31.41;19.15
72585;BME280;60618;40.084;32.908;2022-08-24T16:28:07;88759.88;;;31.37;19.03
72585;BME280;60618;40.084;32.908;2022-08-24T16:30:42;88761.66;;;31.30;19.10
72585;BME280;60618;40.084;32.908;2022-08-24T16:35:58;88761.66;;;31.30;19.10
72585;BME280;60618;40.084;32.908;2022-08-24T16:38:30;88769.81;;;31.28;19.39
72585;BME280;60618;40.084;32.908;2022-08-24T16:41:03;88764.84;;;31.25;19.42
72585;BME280;60618;40.084;32.908;2022-08-24T16:43:33;88757.72;;;31.20;19.40
72585;BME280;60618;40.084;32.908;2022-08-24T16:46:02;88749.97;;;31.16;19.59
72585;BME280;60618;40.084;32.908;2022-08-24T16:48:30;88761.63;;;31.15;19.49
72585;BME280;60618;40.084;32.908;2022-08-24T16:50:57;88762.16;;;31.11;19.61
72585;BME280;60618;40.084;32.908;2022-08-24T16:53:24;88762.59;;;31.05;19.94
72585;BME280;60618;40.084;32.908;2022-08-24T16:55:51;88754.25;;;31.03;20.74
72585;BME280;60618;40.084;32.908;2022-08-24T16:58:20;88765.88;;;31.02;21.72
72585;BME280;60618;40.084;32.908;2022-08-24T17:00:48;88757.41;;;30.98;21.86
72585;BME280;60618;40.084;32.908;2022-08-24T17:03:15;88758.59;;;30.93;21.77
72585;BME280;60618;40.084;32.908;2022-08-24T17:05:43;88750.22;;;30.91;21.49
72585;BME280;60618;40.084;32.908;2022-08-24T17:08:10;88747.38;;;30.89;21.49
72585;BME280;60618;40.084;32.908;2022-08-24T17:10:37;88748.81;;;30.90;21.14
72585;BME280;60618;40.084;32.908;2022-08-24T17:13:04;88741.50;;;30.80;21.18
72585;BME280;60618;40.084;32.908;2022-08-24T17:15:31;88748.34;;;30.79;21.09
72585;BME280;60618;40.084;32.908;2022-08-24T17:18:04;88755.09;;;30.76;20.80